Marlinton, West Virginia
Current Conditions -  °F | °C
As of 3:55 AM on Wednesday 28 Jan 2015 (Local Time) from KHSP Reporting Station
Clear Clear  
Wind Chill: -22°   Ceiling: Unl
Heat Index: -12°   Visibility: 10mi
Dew Point: -13°   Wind: 20mph
Humidity: 89%   Direction: 290°WNW
Pressure: 29.9"   Gusts: NA
Location:  38.22°N, 80.09°W
Report Text: KHSP 280855Z AUTO 29017KT 10SM CLR M11/M13 A2990 RMK AO2 T11151130
Loading
Personal Weather Stations






























Interactive Weather Map New forecast layout! Learn more

10-Day Weather Forecast

Advertisements
Track Severe Weather on mobile